Time;durP1;ratioP1;P1;durP2;ratioP2;P2;SDS_P1;SDS_P2;PMS_P1;PMS_P2;Temp;Humidity;BMP_temperature;BMP_pressure;BME280_temperature;BME280_humidity;BME280_pressure;Samples;Min_cycle;Max_cycle;Signal;HPM_P1;HPM_P2
2022/05/25 00:01:21;;;;;;;6.10;5.53;;;;;;;;;;5052955;28;20470;-33
2022/05/25 00:03:47;;;;;;;6.80;6.20;;;;;;;;;;5052477;28;20082;-31
2022/05/25 00:06:14;;;;;;;6.78;6.18;;;;;;;;;;5051654;28;20525;-31
2022/05/25 00:08:40;;;;;;;6.75;6.05;;;;;;;;;;5051367;28;20087;-31
2022/05/25 00:11:07;;;;;;;7.88;6.22;;;;;;;;;;5051894;28;20094;-31
2022/05/25 00:13:33;;;;;;;6.65;6.10;;;;;;;;;;5051852;28;20041;-32
2022/05/25 00:15:59;;;;;;;6.28;5.68;;;;;;;;;;5052037;28;20048;-31
2022/05/25 00:18:26;;;;;;;6.88;6.18;;;;;;;;;;5051701;28;20193;-31
2022/05/25 00:20:52;;;;;;;6.20;5.70;;;;;;;;;;5051664;28;20494;-31
2022/05/25 00:23:18;;;;;;;6.05;5.55;;;;;;;;;;5052004;28;20106;-31
2022/05/25 00:25:45;;;;;;;6.82;6.20;;;;;;;;;;5051064;28;20160;-31
2022/05/25 00:28:13;;;;;;;6.45;5.85;;;;;;;;;;5051448;28;20052;-31
2022/05/25 00:30:40;;;;;;;6.05;5.45;;;;;;;;;;5051692;28;20039;-31
2022/05/25 00:33:07;;;;;;;7.15;6.55;;;;;;;;;;5052722;28;20398;-32
2022/05/25 00:35:35;;;;;;;8.10;6.20;;;;;;;;;;5051479;28;20033;-33
2022/05/25 00:38:01;;;;;;;6.47;5.88;;;;;;;;;;5050601;28;20037;-32
2022/05/25 00:40:35;;;;;;;6.78;6.22;;;;;;;;;;5051570;28;20041;-31
2022/05/25 00:43:01;;;;;;;7.60;7.00;;;;;;;;;;5050739;28;20075;-31
2022/05/25 00:45:29;;;;;;;6.35;5.75;;;;;;;;;;5051949;28;20056;-31
2022/05/25 00:47:55;;;;;;;6.80;6.20;;;;;;;;;;5051291;28;20044;-31
2022/05/25 00:50:23;;;;;;;7.30;6.68;;;;;;;;;;5050548;28;20106;-31
2022/05/25 00:52:50;;;;;;;8.35;6.68;;;;;;;;;;5051388;28;20048;-31
2022/05/25 00:55:20;;;;;;;7.15;6.55;;;;;;;;;;5051738;28;20091;-31
2022/05/25 00:57:47;;;;;;;7.65;6.95;;;;;;;;;;5051541;28;20052;-32
2022/05/25 01:00:21;;;;;;;7.53;6.68;;;;;;;;;;5051323;28;20124;-33
2022/05/25 01:02:51;;;;;;;7.18;6.43;;;;;;;;;;5051619;28;20393;-31
2022/05/25 01:05:24;;;;;;;6.40;5.80;;;;;;;;;;5051109;28;20080;-31
2022/05/25 01:07:53;;;;;;;6.88;6.28;;;;;;;;;;5051332;28;20037;-34
2022/05/25 01:10:22;;;;;;;7.05;6.43;;;;;;;;;;5050481;28;20498;-32
2022/05/25 01:13:12;;;;;;;7.53;6.90;;;;;;;;;;5050491;28;20064;-32
2022/05/25 01:15:40;;;;;;;7.18;6.20;;;;;;;;;;5012702;28;20053;-34
2022/05/25 01:18:10;;;;;;;8.10;7.30;;;;;;;;;;5049583;28;20035;-33
2022/05/25 01:20:40;;;;;;;7.82;7.07;;;;;;;;;;5051053;28;20037;-32
2022/05/25 01:23:18;;;;;;;7.60;6.93;;;;;;;;;;5051401;28;20364;-32
2022/05/25 01:26:03;;;;;;;8.43;7.72;;;;;;;;;;5050840;28;20059;-32
2022/05/25 01:28:31;;;;;;;8.13;6.97;;;;;;;;;;5041662;28;20572;-31
2022/05/25 01:30:58;;;;;;;7.57;6.88;;;;;;;;;;5051513;28;20037;-31
2022/05/25 01:33:30;;;;;;;10.57;8.82;;;;;;;;;;5032726;28;20488;-33
2022/05/25 01:36:07;;;;;;;9.15;8.23;;;;;;;;;;5031292;28;20044;-32
2022/05/25 01:38:42;;;;;;;8.95;8.13;;;;;;;;;;5034508;28;20494;-33
2022/05/25 01:41:30;;;;;;;9.18;8.20;;;;;;;;;;5051211;28;20053;-31
2022/05/25 01:44:08;;;;;;;9.73;8.82;;;;;;;;;;5050724;28;20550;-31
2022/05/25 01:46:52;;;;;;;10.43;9.40;;;;;;;;;;5051046;28;20064;-31
2022/05/25 01:49:23;;;;;;;8.88;8.07;;;;;;;;;;5050624;28;20044;-31
2022/05/25 01:52:02;;;;;;;9.82;8.82;;;;;;;;;;5050881;28;20033;-32
2022/05/25 01:54:31;;;;;;;12.57;9.23;;;;;;;;;;5050746;28;20486;-32
2022/05/25 01:56:59;;;;;;;11.52;10.40;;;;;;;;;;5050876;28;20458;-31
2022/05/25 01:59:25;;;;;;;10.85;9.75;;;;;;;;;;5050263;28;20044;-33
2022/05/25 02:04:19;;;;;;;10.40;9.13;;;;;;;;;;5049966;28;20518;-31
2022/05/25 02:04:40;;;;;;;10.90;9.65;;;;;;;;;;5050755;28;20076;-31
2022/05/25 02:07:15;;;;;;;10.95;9.75;;;;;;;;;;5049595;28;20041;-32
2022/05/25 02:09:55;;;;;;;11.73;10.55;;;;;;;;;;5045622;28;20069;-32
2022/05/25 02:12:38;;;;;;;11.63;10.52;;;;;;;;;;5035229;28;20059;-31
2022/05/25 02:15:16;;;;;;;11.35;10.25;;;;;;;;;;5050250;28;20090;-31
2022/05/25 02:18:02;;;;;;;13.60;10.43;;;;;;;;;;5042358;28;20042;-31
2022/05/25 02:20:37;;;;;;;12.27;11.07;;;;;;;;;;5034725;28;20083;-32
2022/05/25 02:23:08;;;;;;;11.70;10.50;;;;;;;;;;5049861;28;20044;-31
2022/05/25 02:25:36;;;;;;;12.27;11.02;;;;;;;;;;5049845;28;20108;-32
2022/05/25 02:28:05;;;;;;;11.55;10.25;;;;;;;;;;5049703;28;20175;-34
2022/05/25 02:30:34;;;;;;;13.77;10.77;;;;;;;;;;5031644;28;20033;-32
2022/05/25 02:33:06;;;;;;;11.27;10.25;;;;;;;;;;5050638;28;20040;-31
2022/05/25 02:35:33;;;;;;;11.32;10.27;;;;;;;;;;5048203;28;20072;-31
2022/05/25 02:38:02;;;;;;;12.27;11.02;;;;;;;;;;5048703;28;20036;-33
2022/05/25 02:40:28;;;;;;;11.50;10.35;;;;;;;;;;5049161;28;20578;-31
2022/05/25 02:42:55;;;;;;;11.60;10.45;;;;;;;;;;5048870;28;20060;-32
2022/05/25 02:45:21;;;;;;;12.50;11.30;;;;;;;;;;5049239;28;20049;-31
2022/05/25 02:47:48;;;;;;;12.88;10.90;;;;;;;;;;5049893;28;20037;-32
2022/05/25 02:50:14;;;;;;;12.38;11.07;;;;;;;;;;5050074;28;20100;-31
2022/05/25 02:52:40;;;;;;;12.80;11.55;;;;;;;;;;5050092;28;20047;-32
2022/05/25 02:55:06;;;;;;;13.20;11.82;;;;;;;;;;5048906;28;20136;-30
2022/05/25 02:57:33;;;;;;;13.60;12.30;;;;;;;;;;5049553;28;20045;-32
2022/05/25 02:59:59;;;;;;;12.90;11.70;;;;;;;;;;5050208;28;20110;-29
2022/05/25 03:02:25;;;;;;;13.77;12.38;;;;;;;;;;5050929;28;20539;-33
2022/05/25 03:04:51;;;;;;;13.35;12.05;;;;;;;;;;5031946;28;20041;-32
2022/05/25 03:07:18;;;;;;;16.23;13.52;;;;;;;;;;5050898;28;20127;-29
2022/05/25 03:09:44;;;;;;;15.27;13.63;;;;;;;;;;5050427;28;20041;-28
2022/05/25 03:12:10;;;;;;;13.65;12.25;;;;;;;;;;5050316;28;20171;-28
2022/05/25 03:14:36;;;;;;;14.60;13.10;;;;;;;;;;5050828;28;20114;-29
2022/05/25 03:17:09;;;;;;;14.82;13.35;;;;;;;;;;5050727;28;20144;-30
2022/05/25 03:19:36;;;;;;;17.20;14.27;;;;;;;;;;5050522;28;20045;-30
2022/05/25 03:22:02;;;;;;;15.45;13.85;;;;;;;;;;5050781;28;20072;-28
2022/05/25 03:24:28;;;;;;;14.32;12.93;;;;;;;;;;5050508;28;20049;-30
2022/05/25 03:26:54;;;;;;;15.85;14.23;;;;;;;;;;5054452;28;20045;-28
2022/05/25 03:29:20;;;;;;;15.25;13.65;;;;;;;;;;5053927;28;20041;-29
2022/05/25 03:31:47;;;;;;;16.42;14.82;;;;;;;;;;5054215;28;20041;-29
2022/05/25 03:34:13;;;;;;;16.65;14.82;;;;;;;;;;5054026;28;20037;-30
2022/05/25 03:36:39;;;;;;;14.77;13.27;;;;;;;;;;5053834;28;20049;-28
2022/05/25 03:39:05;;;;;;;16.88;14.13;;;;;;;;;;5053755;28;20044;-29
2022/05/25 03:41:31;;;;;;;16.05;14.38;;;;;;;;;;5053637;28;20087;-29
2022/05/25 03:43:57;;;;;;;17.52;15.20;;;;;;;;;;5053463;28;20072;-29
2022/05/25 03:46:23;;;;;;;16.50;14.80;;;;;;;;;;5054036;28;20045;-29
2022/05/25 03:48:49;;;;;;;16.17;14.50;;;;;;;;;;5035818;28;20055;-29
2022/05/25 03:51:15;;;;;;;17.92;15.23;;;;;;;;;;5035504;28;20040;-29
2022/05/25 03:53:42;;;;;;;16.30;14.07;;;;;;;;;;5053617;28;20394;-29
2022/05/25 03:56:08;;;;;;;17.70;15.73;;;;;;;;;;5053742;28;20497;-30
2022/05/25 03:58:34;;;;;;;20.83;15.88;;;;;;;;;;5053528;28;20045;-29
2022/05/25 04:01:00;;;;;;;16.48;14.73;;;;;;;;;;5053323;28;20415;-29
2022/05/25 04:03:26;;;;;;;16.58;14.80;;;;;;;;;;5053818;28;20293;-29
2022/05/25 04:05:53;;;;;;;17.35;15.15;;;;;;;;;;5053547;28;20041;-29
2022/05/25 04:08:19;;;;;;;20.17;15.18;;;;;;;;;;5052759;28;20041;-30
2022/05/25 04:10:45;;;;;;;19.05;15.45;;;;;;;;;;5053087;28;20036;-31
2022/05/25 04:13:11;;;;;;;19.25;17.02;;;;;;;;;;5052968;28;20116;-29
2022/05/25 04:15:37;;;;;;;17.70;15.80;;;;;;;;;;5053371;28;20475;-29
2022/05/25 04:18:03;;;;;;;19.48;16.00;;;;;;;;;;5053321;28;20090;-30
2022/05/25 04:20:30;;;;;;;17.88;15.90;;;;;;;;;;5052876;28;20043;-30
2022/05/25 04:22:56;;;;;;;19.88;16.08;;;;;;;;;;5052891;28;20041;-29
2022/05/25 04:25:23;;;;;;;19.23;16.52;;;;;;;;;;5053437;28;20049;-29
2022/05/25 04:27:50;;;;;;;18.08;15.43;;;;;;;;;;5053525;28;20469;-29
2022/05/25 04:30:19;;;;;;;17.98;15.63;;;;;;;;;;5053557;28;20044;-29
2022/05/25 04:32:45;;;;;;;19.77;16.33;;;;;;;;;;5053113;28;20037;-29
2022/05/25 04:35:11;;;;;;;19.55;16.70;;;;;;;;;;5052545;28;20081;-29
2022/05/25 04:37:49;;;;;;;20.00;16.88;;;;;;;;;;5033423;28;20113;-30
2022/05/25 04:40:21;;;;;;;20.92;17.75;;;;;;;;;;5052936;28;20048;-30
2022/05/25 04:42:48;;;;;;;20.42;17.83;;;;;;;;;;5052411;28;20044;-29
2022/05/25 04:45:14;;;;;;;18.13;16.05;;;;;;;;;;5052817;28;20083;-29
2022/05/25 04:47:40;;;;;;;20.20;16.60;;;;;;;;;;5047973;28;20120;-29
2022/05/25 04:50:07;;;;;;;21.17;18.10;;;;;;;;;;5032739;28;20506;-29
2022/05/25 04:52:34;;;;;;;21.42;17.52;;;;;;;;;;5032668;28;20399;-29
2022/05/25 04:55:00;;;;;;;21.05;16.83;;;;;;;;;;5044753;28;20394;-29
2022/05/25 04:57:27;;;;;;;22.80;17.08;;;;;;;;;;5052002;28;20033;-29
2022/05/25 04:59:54;;;;;;;19.35;16.67;;;;;;;;;;5052129;28;20449;-30
2022/05/25 05:02:20;;;;;;;17.58;15.43;;;;;;;;;;5052254;28;20120;-29
2022/05/25 05:04:47;;;;;;;21.35;16.45;;;;;;;;;;5052403;28;20521;-29
2022/05/25 05:07:14;;;;;;;20.98;15.70;;;;;;;;;;5046887;28;20037;-29
2022/05/25 05:09:42;;;;;;;21.98;17.17;;;;;;;;;;5046187;28;20045;-29
2022/05/25 05:12:08;;;;;;;19.45;16.02;;;;;;;;;;5050306;28;20041;-29
2022/05/25 05:14:35;;;;;;;17.85;15.50;;;;;;;;;;5051437;28;20124;-29
2022/05/25 05:17:02;;;;;;;20.48;16.58;;;;;;;;;;5052097;28;20037;-29
2022/05/25 05:19:28;;;;;;;23.05;18.10;;;;;;;;;;5034024;28;20079;-30
2022/05/25 05:21:57;;;;;;;24.27;18.40;;;;;;;;;;5051493;28;20041;-32
2022/05/25 05:24:24;;;;;;;19.15;15.80;;;;;;;;;;5051960;28;20067;-30
2022/05/25 05:26:50;;;;;;;21.13;17.38;;;;;;;;;;5052066;28;20068;-29
2022/05/25 05:29:16;;;;;;;21.35;17.35;;;;;;;;;;5051506;28;20044;-29
2022/05/25 05:31:42;;;;;;;18.02;15.70;;;;;;;;;;5046242;28;20038;-29
2022/05/25 05:34:08;;;;;;;20.25;16.65;;;;;;;;;;5014297;28;20506;-29
2022/05/25 05:36:36;;;;;;;18.48;16.25;;;;;;;;;;5039611;28;20071;-29
2022/05/25 05:39:05;;;;;;;19.65;17.48;;;;;;;;;;5051516;28;20094;-30
2022/05/25 05:41:36;;;;;;;19.15;16.55;;;;;;;;;;5043261;28;20533;-29
2022/05/25 05:44:03;;;;;;;19.40;16.35;;;;;;;;;;5035590;28;20045;-30
2022/05/25 05:46:30;;;;;;;22.10;17.00;;;;;;;;;;5031574;28;20435;-29
2022/05/25 05:48:56;;;;;;;21.83;17.00;;;;;;;;;;5031158;28;20517;-29
2022/05/25 05:51:22;;;;;;;23.02;17.40;;;;;;;;;;5031698;28;20048;-29
2022/05/25 05:53:49;;;;;;;20.58;17.23;;;;;;;;;;4997261;28;20056;-28
2022/05/25 05:56:17;;;;;;;18.75;15.50;;;;;;;;;;5031518;28;20037;-30
2022/05/25 05:58:43;;;;;;;24.30;17.67;;;;;;;;;;5031557;28;20470;-29
2022/05/25 06:01:09;;;;;;;24.73;17.05;;;;;;;;;;5031509;28;20465;-30
2022/05/25 06:03:35;;;;;;;22.33;17.67;;;;;;;;;;5031068;28;20071;-29
2022/05/25 06:06:01;;;;;;;20.55;17.63;;;;;;;;;;5034989;28;20041;-30
2022/05/25 06:08:29;;;;;;;21.48;16.20;;;;;;;;;;5051304;28;20080;-29
2022/05/25 06:10:59;;;;;;;22.70;16.52;;;;;;;;;;5051040;28;20041;-30
2022/05/25 06:13:25;;;;;;;20.48;16.17;;;;;;;;;;5051218;28;20037;-30
2022/05/25 06:21:23;;;;;;;20.55;17.13;;;;;;;;;;5050830;28;20045;-30
2022/05/25 06:23:49;;;;;;;20.08;16.33;;;;;;;;;;5050943;28;20080;-29
2022/05/25 06:26:15;;;;;;;18.88;16.13;;;;;;;;;;5050946;28;20045;-30
2022/05/25 06:28:42;;;;;;;20.58;15.35;;;;;;;;;;5050837;28;20045;-29
2022/05/25 06:31:08;;;;;;;19.83;15.27;;;;;;;;;;5050944;28;20482;-29
2022/05/25 06:33:34;;;;;;;20.77;15.52;;;;;;;;;;5050843;28;20037;-30
2022/05/25 06:36:12;;;;;;;21.95;15.30;;;;;;;;;;5050765;28;20449;-30
2022/05/25 06:38:38;;;;;;;19.63;15.20;;;;;;;;;;5050938;28;20119;-29
2022/05/25 06:41:04;;;;;;;19.65;16.50;;;;;;;;;;5050951;28;20041;-30
2022/05/25 06:43:32;;;;;;;22.98;16.67;;;;;;;;;;5050780;28;20037;-30
2022/05/25 06:45:58;;;;;;;24.42;16.65;;;;;;;;;;5050900;28;20076;-29
2022/05/25 06:48:24;;;;;;;20.42;16.15;;;;;;;;;;5050656;28;20507;-29
2022/05/25 06:50:50;;;;;;;19.48;16.50;;;;;;;;;;5050765;28;20048;-29
2022/05/25 06:53:16;;;;;;;17.02;15.00;;;;;;;;;;5050502;28;20044;-30
2022/05/25 06:55:42;;;;;;;20.42;14.13;;;;;;;;;;5050523;28;20510;-29
2022/05/25 06:58:08;;;;;;;23.15;14.80;;;;;;;;;;5050362;28;20041;-29
2022/05/25 07:00:34;;;;;;;16.60;13.98;;;;;;;;;;5052282;28;20099;-30
2022/05/25 07:03:03;;;;;;;15.90;13.35;;;;;;;;;;5054784;28;20044;-30
2022/05/25 07:05:29;;;;;;;17.25;13.55;;;;;;;;;;5054728;28;20040;-29
2022/05/25 07:07:55;;;;;;;18.58;13.93;;;;;;;;;;5054652;28;20491;-30
2022/05/25 07:10:22;;;;;;;16.88;12.70;;;;;;;;;;5054365;28;20533;-30
2022/05/25 07:12:48;;;;;;;15.70;13.20;;;;;;;;;;5054018;28;20036;-29
2022/05/25 07:15:14;;;;;;;15.20;12.50;;;;;;;;;;5054596;28;20069;-29
2022/05/25 07:17:40;;;;;;;14.65;11.20;;;;;;;;;;5053990;28;20037;-30
2022/05/25 07:20:09;;;;;;;12.63;11.15;;;;;;;;;;5054577;28;20067;-30
2022/05/25 07:22:35;;;;;;;13.55;10.60;;;;;;;;;;5054348;28;20495;-30
2022/05/25 07:25:01;;;;;;;13.85;9.93;;;;;;;;;;5054424;28;20052;-30
2022/05/25 07:27:27;;;;;;;12.80;10.20;;;;;;;;;;5053974;28;20135;-31
2022/05/25 07:29:53;;;;;;;10.88;9.77;;;;;;;;;;5054569;28;20045;-30
2022/05/25 07:32:20;;;;;;;13.85;10.25;;;;;;;;;;5054787;28;20453;-30
2022/05/25 07:34:49;;;;;;;10.73;9.50;;;;;;;;;;5054269;28;20044;-29
2022/05/25 07:37:16;;;;;;;13.23;11.07;;;;;;;;;;5054777;28;20040;-30
2022/05/25 07:39:51;;;;;;;10.52;9.32;;;;;;;;;;5054193;28;20048;-31
2022/05/25 07:42:18;;;;;;;13.80;9.55;;;;;;;;;;5047728;28;20418;-30
2022/05/25 07:44:58;;;;;;;9.75;8.68;;;;;;;;;;5053722;28;20166;-30
2022/05/25 07:47:25;;;;;;;10.98;7.82;;;;;;;;;;5051262;28;20067;-30
2022/05/25 07:49:51;;;;;;;11.00;8.13;;;;;;;;;;5042104;28;20038;-30
2022/05/25 07:52:18;;;;;;;9.60;8.23;;;;;;;;;;5040828;28;20044;-30
2022/05/25 07:54:45;;;;;;;10.10;8.10;;;;;;;;;;5053895;28;20049;-29
2022/05/25 07:57:11;;;;;;;11.90;9.48;;;;;;;;;;5053991;28;20115;-30
2022/05/25 07:59:38;;;;;;;9.57;8.45;;;;;;;;;;5053904;28;20048;-30
2022/05/25 08:07:36;;;;;;;7.97;7.18;;;;;;;;;;5053489;28;20041;-32
2022/05/25 08:10:14;;;;;;;7.82;6.63;;;;;;;;;;5053504;28;20041;-30
2022/05/25 08:12:41;;;;;;;7.32;6.70;;;;;;;;;;5052865;28;20063;-30
2022/05/25 08:15:08;;;;;;;7.40;6.70;;;;;;;;;;5053106;28;20077;-30
2022/05/25 08:17:34;;;;;;;7.45;6.60;;;;;;;;;;5052859;28;20041;-29
2022/05/25 08:20:00;;;;;;;6.97;6.28;;;;;;;;;;5052923;28;20044;-30
2022/05/25 08:22:26;;;;;;;7.43;6.63;;;;;;;;;;5052985;28;20045;-31
2022/05/25 08:24:53;;;;;;;7.32;6.57;;;;;;;;;;5052906;28;20041;-31
2022/05/25 08:27:19;;;;;;;7.10;6.07;;;;;;;;;;5052898;28;20402;-30
2022/05/25 08:29:45;;;;;;;8.63;6.80;;;;;;;;;;5052844;28;20043;-29
2022/05/25 08:32:12;;;;;;;7.15;6.35;;;;;;;;;;5052619;28;20040;-30
2022/05/25 08:34:38;;;;;;;6.18;5.10;;;;;;;;;;5053049;28;20462;-31
2022/05/25 08:37:04;;;;;;;7.20;5.45;;;;;;;;;;5052681;28;20084;-31
2022/05/25 08:39:30;;;;;;;6.53;5.88;;;;;;;;;;5035820;28;20446;-31
2022/05/25 08:41:59;;;;;;;7.72;7.03;;;;;;;;;;5032588;28;20056;-30
2022/05/25 08:44:25;;;;;;;6.30;5.80;;;;;;;;;;5033117;28;20184;-30
2022/05/25 08:46:55;;;;;;;6.28;5.47;;;;;;;;;;5015130;28;20045;-30
2022/05/25 08:49:23;;;;;;;7.03;6.05;;;;;;;;;;5014835;28;20049;-31
2022/05/25 08:51:51;;;;;;;6.60;5.93;;;;;;;;;;5032417;28;20083;-30
2022/05/25 08:54:18;;;;;;;7.22;5.55;;;;;;;;;;5032941;28;20121;-31
2022/05/25 08:56:47;;;;;;;5.53;4.97;;;;;;;;;;5032807;28;20037;-31
2022/05/25 08:59:19;;;;;;;6.38;4.60;;;;;;;;;;5032541;28;20158;-31
2022/05/25 09:01:51;;;;;;;9.45;5.70;;;;;;;;;;5032547;28;20377;-32
2022/05/25 09:04:18;;;;;;;7.43;4.90;;;;;;;;;;5030818;28;20576;-30
2022/05/25 09:06:44;;;;;;;5.47;4.90;;;;;;;;;;5032500;28;20402;-29
2022/05/25 09:09:18;;;;;;;5.20;4.80;;;;;;;;;;5032281;28;20466;-31
2022/05/25 09:11:48;;;;;;;5.18;4.65;;;;;;;;;;5032470;28;20033;-30
2022/05/25 09:14:18;;;;;;;5.13;4.60;;;;;;;;;;5032388;28;20048;-31
2022/05/25 09:16:46;;;;;;;5.15;4.68;;;;;;;;;;5032319;28;20171;-30
2022/05/25 09:19:17;;;;;;;6.13;4.80;;;;;;;;;;5032273;28;20064;-30
2022/05/25 09:21:53;;;;;;;4.93;4.43;;;;;;;;;;5032225;28;20041;-31
2022/05/25 09:24:21;;;;;;;8.25;5.30;;;;;;;;;;5031623;28;20545;-31
2022/05/25 09:26:47;;;;;;;5.43;4.93;;;;;;;;;;5031635;28;20458;-31
2022/05/25 09:29:14;;;;;;;4.88;4.38;;;;;;;;;;5031691;28;20042;-33
2022/05/25 09:31:43;;;;;;;5.93;4.63;;;;;;;;;;5042117;28;20042;-33
2022/05/25 09:34:11;;;;;;;6.50;5.05;;;;;;;;;;5031148;28;20548;-32
2022/05/25 09:36:44;;;;;;;5.78;5.28;;;;;;;;;;5031333;28;20045;-32
2022/05/25 09:39:16;;;;;;;6.05;5.50;;;;;;;;;;5031250;28;20394;-32
2022/05/25 09:41:45;;;;;;;5.82;5.32;;;;;;;;;;5049956;28;20041;-32
2022/05/25 09:44:13;;;;;;;7.45;6.43;;;;;;;;;;5050801;28;20048;-33
2022/05/25 09:46:43;;;;;;;6.22;5.40;;;;;;;;;;5038261;28;20515;-34
2022/05/25 09:49:14;;;;;;;5.50;5.03;;;;;;;;;;5042207;28;20037;-34
2022/05/25 09:51:44;;;;;;;5.38;4.93;;;;;;;;;;5046933;28;20163;-34
2022/05/25 09:54:25;;;;;;;5.95;4.22;;;;;;;;;;5046459;28;20033;-32
2022/05/25 09:56:51;;;;;;;4.40;4.03;;;;;;;;;;5040804;28;20037;-34
2022/05/25 09:59:41;;;;;;;4.35;3.95;;;;;;;;;;5039085;28;20369;-34
2022/05/25 10:02:26;;;;;;;4.20;3.80;;;;;;;;;;5037000;28;20107;-33
2022/05/25 10:04:54;;;;;;;5.93;3.92;;;;;;;;;;5043773;28;20088;-34
2022/05/25 10:07:25;;;;;;;5.03;3.67;;;;;;;;;;5044787;28;20045;-33
2022/05/25 10:09:52;;;;;;;4.55;4.15;;;;;;;;;;5042400;28;20041;-32
2022/05/25 10:12:25;;;;;;;4.10;3.70;;;;;;;;;;5050909;28;20055;-32
2022/05/25 10:14:57;;;;;;;4.80;4.30;;;;;;;;;;5032799;28;20087;-34
2022/05/25 10:17:40;;;;;;;4.45;3.95;;;;;;;;;;5047104;28;20040;-33
2022/05/25 10:20:19;;;;;;;3.83;3.53;;;;;;;;;;5036039;28;20053;-32
2022/05/25 10:22:46;;;;;;;4.22;3.83;;;;;;;;;;5050689;28;20049;-33
2022/05/25 10:25:29;;;;;;;5.10;3.85;;;;;;;;;;5050836;28;20450;-33
2022/05/25 10:27:57;;;;;;;3.92;3.53;;;;;;;;;;5050223;28;20510;-34
2022/05/25 10:38:51;;;;;;;4.53;4.10;;;;;;;;;;5054473;28;20095;-34
2022/05/25 10:41:39;;;;;;;4.95;4.40;;;;;;;;;;5054196;28;20041;-33
2022/05/25 10:44:23;;;;;;;4.90;3.90;;;;;;;;;;5054930;28;20056;-32
2022/05/25 10:46:52;;;;;;;4.07;3.75;;;;;;;;;;5054926;28;20076;-32
2022/05/25 10:49:27;;;;;;;5.15;4.50;;;;;;;;;;5054077;28;20041;-33
2022/05/25 10:51:58;;;;;;;4.38;4.07;;;;;;;;;;5053847;28;20491;-33
2022/05/25 10:57:34;;;;;;;4.95;4.55;;;;;;;;;;5054181;28;20041;-33
2022/05/25 11:00:09;;;;;;;5.38;4.82;;;;;;;;;;5054161;28;20048;-33
2022/05/25 11:02:57;;;;;;;6.00;5.00;;;;;;;;;;5053660;28;20406;-33
2022/05/25 11:05:30;;;;;;;6.13;5.55;;;;;;;;;;5053633;28;20040;-33
2022/05/25 11:08:02;;;;;;;6.47;5.60;;;;;;;;;;5053863;28;20037;-32
2022/05/25 11:10:47;;;;;;;6.03;5.63;;;;;;;;;;5055294;28;20077;-34
2022/05/25 11:13:24;;;;;;;5.55;5.05;;;;;;;;;;5054658;28;20050;-32
2022/05/25 11:16:09;;;;;;;6.93;5.13;;;;;;;;;;5054854;28;20094;-33
2022/05/25 11:19:03;;;;;;;5.13;4.65;;;;;;;;;;5054740;28;20112;-34
2022/05/25 11:21:37;;;;;;;4.68;4.28;;;;;;;;;;5055410;28;20084;-33
2022/05/25 11:24:03;;;;;;;5.32;4.85;;;;;;;;;;5054658;28;20128;-32
2022/05/25 11:26:46;;;;;;;6.07;5.22;;;;;;;;;;5055359;28;20072;-32
2022/05/25 11:29:35;;;;;;;6.05;5.50;;;;;;;;;;5054388;28;20174;-34
2022/05/25 11:32:19;;;;;;;6.95;6.35;;;;;;;;;;5053689;28;20037;-33
2022/05/25 11:34:55;;;;;;;6.82;6.32;;;;;;;;;;5053851;28;20037;-32
2022/05/25 11:37:30;;;;;;;6.72;6.10;;;;;;;;;;5046084;28;20044;-33
2022/05/25 11:40:02;;;;;;;6.07;5.53;;;;;;;;;;5054310;28;20045;-32
2022/05/25 11:42:29;;;;;;;6.55;5.32;;;;;;;;;;5048286;28;20041;-33
2022/05/25 11:45:00;;;;;;;9.45;5.45;;;;;;;;;;5049404;28;20509;-32
2022/05/25 11:47:40;;;;;;;6.28;4.85;;;;;;;;;;5053347;28;20049;-33
2022/05/25 11:50:24;;;;;;;4.82;4.32;;;;;;;;;;5053885;28;20070;-32
2022/05/25 11:52:53;;;;;;;6.18;4.82;;;;;;;;;;5052625;28;20562;-32
2022/05/25 11:55:22;;;;;;;5.13;4.63;;;;;;;;;;5053804;28;20163;-32
2022/05/25 11:58:00;;;;;;;6.10;5.60;;;;;;;;;;5052928;28;20138;-32
2022/05/25 12:00:29;;;;;;;6.47;5.97;;;;;;;;;;5053464;28;20098;-31
2022/05/25 12:03:14;;;;;;;7.25;6.10;;;;;;;;;;5051891;28;20517;-32
2022/05/25 12:06:14;;;;;;;6.80;5.65;;;;;;;;;;5037557;28;20041;-32
2022/05/25 12:08:43;;;;;;;6.00;5.35;;;;;;;;;;5011260;28;20060;-32
2022/05/25 12:11:15;;;;;;;7.75;5.32;;;;;;;;;;5035198;28;20037;-32
2022/05/25 12:13:45;;;;;;;6.53;5.28;;;;;;;;;;5042229;28;20375;-32
2022/05/25 12:16:17;;;;;;;6.45;5.40;;;;;;;;;;5022135;28;20045;-31
2022/05/25 12:18:49;;;;;;;6.20;4.97;;;;;;;;;;5042106;28;20037;-30
2022/05/25 12:21:18;;;;;;;5.53;5.03;;;;;;;;;;5035714;28;20399;-32
2022/05/25 12:24:05;;;;;;;5.63;4.30;;;;;;;;;;5035228;28;20049;-31
2022/05/25 12:26:33;;;;;;;5.53;5.03;;;;;;;;;;5041706;28;20108;-33
2022/05/25 12:29:06;;;;;;;6.90;5.30;;;;;;;;;;5045890;28;20101;-37
2022/05/25 12:31:33;;;;;;;5.70;5.15;;;;;;;;;;5039784;28;20372;-31
2022/05/25 12:33:59;;;;;;;6.38;5.10;;;;;;;;;;5040041;28;20033;-35
2022/05/25 12:36:26;;;;;;;5.57;5.07;;;;;;;;;;5045391;28;20093;-33
2022/05/25 12:38:53;;;;;;;5.28;4.78;;;;;;;;;;5038758;28;20125;-31
2022/05/25 12:41:34;;;;;;;5.43;4.93;;;;;;;;;;5032959;28;20042;-33
2022/05/25 12:44:03;;;;;;;6.57;5.90;;;;;;;;;;5019019;28;20080;-34
2022/05/25 12:49:34;;;;;;;5.65;5.25;;;;;;;;;;5025329;28;20053;-32
2022/05/25 12:52:00;;;;;;;7.57;5.07;;;;;;;;;;5034907;28;20045;-33
2022/05/25 12:54:31;;;;;;;5.93;4.85;;;;;;;;;;5034292;28;20041;-31
2022/05/25 12:56:59;;;;;;;4.45;4.00;;;;;;;;;;5051076;28;20041;-33
2022/05/25 12:59:25;;;;;;;5.20;3.92;;;;;;;;;;5051354;28;20542;-32
2022/05/25 13:02:13;;;;;;;3.85;3.55;;;;;;;;;;5051979;28;20132;-31
2022/05/25 13:04:48;;;;;;;3.92;3.50;;;;;;;;;;5052701;28;20124;-35
2022/05/25 13:07:33;;;;;;;8.82;3.42;;;;;;;;;;5052109;28;20055;-32
2022/05/25 13:09:59;;;;;;;4.18;2.60;;;;;;;;;;5032489;28;20138;-33
2022/05/25 13:12:40;;;;;;;3.42;2.85;;;;;;;;;;5040501;28;20033;-35
2022/05/25 13:15:17;;;;;;;3.65;2.80;;;;;;;;;;5051522;28;20164;-34
2022/05/25 13:17:56;;;;;;;4.38;2.33;;;;;;;;;;5049147;28;20606;-37
2022/05/25 13:20:28;;;;;;;2.55;1.98;;;;;;;;;;5051690;28;20041;-33
2022/05/25 13:23:15;;;;;;;2.47;1.40;;;;;;;;;;5049671;28;20072;-33
2022/05/25 13:26:03;;;;;;;2.75;1.20;;;;;;;;;;5011731;28;20387;-32
2022/05/25 13:28:49;;;;;;;3.20;1.30;;;;;;;;;;5051164;28;20099;-33
2022/05/25 13:31:33;;;;;;;2.50;1.40;;;;;;;;;;5032648;28;20443;-35
2022/05/25 13:34:07;;;;;;;3.70;1.40;;;;;;;;;;5031895;28;20044;-34
2022/05/25 13:36:42;;;;;;;1.77;1.30;;;;;;;;;;5032121;28;20297;-33
2022/05/25 13:39:08;;;;;;;4.60;1.92;;;;;;;;;;5036668;28;20457;-33
2022/05/25 13:41:42;;;;;;;3.90;1.17;;;;;;;;;;5051794;28;20048;-33
2022/05/25 13:44:13;;;;;;;6.50;1.63;;;;;;;;;;5033322;28;20064;-32
2022/05/25 13:46:42;;;;;;;2.95;1.40;;;;;;;;;;5017646;28;20045;-34
2022/05/25 13:49:20;;;;;;;3.58;1.55;;;;;;;;;;5050695;28;20119;-34
2022/05/25 13:51:47;;;;;;;4.07;1.48;;;;;;;;;;5050502;28;20073;-34
2022/05/25 13:54:31;;;;;;;4.20;1.20;;;;;;;;;;5051321;28;20108;-33
2022/05/25 13:56:58;;;;;;;3.33;1.23;;;;;;;;;;5052166;28;20041;-32
2022/05/25 13:59:29;;;;;;;3.22;1.40;;;;;;;;;;5052097;28;20047;-31
2022/05/25 14:01:57;;;;;;;;;;;;;;;;;;5019831;28;20053;-31
2022/05/25 14:04:27;;;;;;;2.67;1.20;;;;;;;;;;5034545;28;19921;-30
2022/05/25 14:06:53;;;;;;;3.85;1.13;;;;;;;;;;5052557;28;20080;-30
2022/05/25 14:12:13;;;;;;;3.35;1.33;;;;;;;;;;5051740;28;20072;-29
2022/05/25 14:14:46;;;;;;;1.95;0.90;;;;;;;;;;5034362;28;20459;-30
2022/05/25 14:17:12;;;;;;;;;;;;;;;;;;5033945;28;20461;-30
2022/05/25 14:19:52;;;;;;;5.93;1.30;;;;;;;;;;5051614;28;19956;-31
2022/05/25 14:22:20;;;;;;;2.90;1.48;;;;;;;;;;5051896;28;20040;-30
2022/05/25 14:24:48;;;;;;;4.30;1.15;;;;;;;;;;5034182;28;20139;-31
2022/05/25 14:27:17;;;;;;;2.90;1.00;;;;;;;;;;5034442;28;20123;-30
2022/05/25 14:29:44;;;;;;;2.15;1.13;;;;;;;;;;5018299;28;20095;-31
2022/05/25 14:32:12;;;;;;;2.35;1.00;;;;;;;;;;5018391;28;20080;-30
2022/05/25 14:34:43;;;;;;;3.60;1.10;;;;;;;;;;5034287;28;20090;-30
2022/05/25 14:37:10;;;;;;;3.33;1.23;;;;;;;;;;5034384;28;20048;-30
2022/05/25 14:39:36;;;;;;;2.50;1.02;;;;;;;;;;5034550;28;20045;-31
2022/05/25 14:42:13;;;;;;;2.92;1.05;;;;;;;;;;5034660;28;20041;-30
2022/05/25 14:44:53;;;;;;;3.65;1.00;;;;;;;;;;5052554;28;20120;-30
2022/05/25 14:47:51;;;;;;;3.50;0.98;;;;;;;;;;5052378;28;20048;-31
2022/05/25 14:50:21;;;;;;;3.20;1.00;;;;;;;;;;4991185;28;20075;-32
2022/05/25 14:52:56;;;;;;;2.50;1.20;;;;;;;;;;5051465;28;20045;-29
2022/05/25 14:55:27;;;;;;;4.68;1.20;;;;;;;;;;5052269;28;20045;-28
2022/05/25 14:58:02;;;;;;;4.25;1.10;;;;;;;;;;5052295;28;20424;-28
2022/05/25 15:00:29;;;;;;;4.30;1.10;;;;;;;;;;5051317;28;20037;-28
2022/05/25 15:03:02;;;;;;;3.40;1.30;;;;;;;;;;5051326;28;20048;-28
2022/05/25 15:05:30;;;;;;;1.75;1.20;;;;;;;;;;5051585;28;20078;-31
2022/05/25 15:07:57;;;;;;;2.50;1.00;;;;;;;;;;5051648;28;20115;-35
2022/05/25 15:10:31;;;;;;;2.83;1.13;;;;;;;;;;5018382;28;20099;-31
2022/05/25 15:12:57;;;;;;;3.67;1.05;;;;;;;;;;5052596;28;20040;-31
2022/05/25 15:18:29;;;;;;;1.80;1.02;;;;;;;;;;5051503;28;20122;-30
2022/05/25 15:20:56;;;;;;;3.13;1.13;;;;;;;;;;5052467;28;20441;-28
2022/05/25 15:23:24;;;;;;;3.75;1.23;;;;;;;;;;5055488;28;20505;-28